Time;durP1;ratioP1;P1;durP2;ratioP2;P2;SDS_P1;SDS_P2;PMS_P1;PMS_P2;Temp;Humidity;BMP_temperature;BMP_pressure;BME280_temperature;BME280_humidity;BME280_pressure;Samples;Min_cycle;Max_cycle;Signal;HPM_P1;HPM_P2
2022/06/16 00:01:08;;;;;;;;;;;20.10;67.40;;;19.41;62.76;96699.38;4056941;34;20108;-86
2022/06/16 00:03:37;;;;;;;;;;;20.10;67.30;;;19.41;62.85;96702.13;4120539;34;19924;-87
2022/06/16 00:06:06;;;;;;;;;;;20.10;67.30;;;19.40;62.61;96694.94;4098081;34;20177;-86
2022/06/16 00:08:35;;;;;;;;;;;20.10;67.30;;;19.41;62.65;96696.59;4097749;34;19904;-85
2022/06/16 00:11:19;;;;;;;;;;;20.10;67.30;;;19.39;62.51;96688.56;4119978;34;19912;-87
2022/06/16 00:13:50;;;;;;;;;;;20.10;67.30;;;19.37;62.58;96684.47;4097959;34;19905;-87
2022/06/16 00:16:21;;;;;;;;;;;20.00;67.20;;;19.39;62.45;96684.97;4075895;34;20131;-87
2022/06/16 00:18:50;;;;;;;;;;;20.10;67.40;;;19.38;62.60;96686.09;4120000;34;19949;-86
2022/06/16 00:21:19;;;;;;;;;;;20.00;67.30;;;19.37;62.61;96685.28;4092444;34;19976;-86
2022/06/16 00:23:51;;;;;;;;;;;20.00;67.30;;;19.38;62.60;96686.09;4071600;34;19955;-86
2022/06/16 00:26:22;;;;;;;;;;;20.00;67.20;;;19.36;62.85;96685.59;4049892;34;20143;-87
2022/06/16 00:28:51;;;;;;;;;;;20.00;67.20;;;19.36;62.49;96692.00;4049525;34;20428;-86
2022/06/16 00:31:22;;;;;;;;;;;20.00;67.20;;;19.34;62.88;96679.53;4071195;34;19905;-86
2022/06/16 00:33:51;;;;;;;;;;;20.00;67.20;;;19.35;62.80;96682.00;4071304;34;19911;-87
2022/06/16 00:36:20;;;;;;;;;;;20.00;67.20;;;19.34;62.66;96680.38;4071381;34;19986;-86
2022/06/16 00:38:49;;;;;;;;;;;20.00;67.30;;;19.31;62.91;96676.25;4049367;34;20141;-86
2022/06/16 00:41:18;;;;;;;;;;;20.00;67.20;;;19.34;62.64;96685.09;4049685;34;20048;-86
2022/06/16 00:43:47;;;;;;;;;;;20.00;67.30;;;19.34;62.79;96673.97;4049415;34;19978;-86
2022/06/16 00:46:17;;;;;;;;;;;20.00;67.30;;;19.31;62.86;96681.81;4093314;34;19905;-86
2022/06/16 00:48:50;;;;;;;;;;;20.00;67.30;;;19.32;62.65;96682.63;4049463;34;19905;-86
2022/06/16 00:51:25;;;;;;;;;;;20.00;67.20;;;19.32;62.79;96680.66;4049353;34;20200;-86
2022/06/16 00:53:54;;;;;;;;;;;20.00;67.20;;;19.32;62.59;96682.63;4071147;34;19905;-86
2022/06/16 00:56:23;;;;;;;;;;;20.00;67.20;;;19.28;62.91;96676.91;4093260;34;20007;-86
2022/06/16 00:58:55;;;;;;;;;;;20.00;67.30;;;19.30;62.57;96682.94;4071059;34;19912;-85
2022/06/16 01:01:29;;;;;;;;;;;20.00;67.10;;;19.28;62.71;96676.91;4092421;34;19949;-86
2022/06/16 01:06:46;;;;;;;;;;;20.00;67.20;;;19.29;62.46;96684.09;4049304;34;20228;-87
2022/06/16 01:09:18;;;;;;;;;;;20.00;67.10;;;19.28;62.80;96682.47;4070853;34;19912;-87
2022/06/16 01:15:00;;;;;;;;;;;19.90;67.20;;;19.27;62.73;96679.97;4098047;34;20054;-86
2022/06/16 01:17:34;;;;;;;;;;;20.00;67.10;;;19.27;62.91;96682.75;4075242;34;20136;-86
2022/06/16 01:20:15;;;;;;;;;;;20.00;67.20;;;19.26;62.68;96673.63;4096590;34;20033;-86
2022/06/16 01:23:20;;;;;;;;;;;19.90;67.20;;;19.26;62.60;96681.13;4097162;34;20245;-87
2022/06/16 01:25:57;;;;;;;;;;;19.90;67.10;;;19.25;62.47;96680.31;4117672;34;20138;-87
2022/06/16 01:28:27;;;;;;;;;;;19.90;67.20;;;19.25;62.67;96677.53;4119528;34;19905;-86
2022/06/16 01:31:03;;;;;;;;;;;19.90;67.20;;;19.24;62.39;96681.44;4096572;34;20227;-87
2022/06/16 01:33:39;;;;;;;;;;;19.90;67.10;;;19.23;62.51;96685.34;4097130;34;19918;-85
2022/06/16 01:36:13;;;;;;;;;;;19.90;67.10;;;19.23;62.46;96679.78;4074970;34;19905;-86
2022/06/16 01:38:46;;;;;;;;;;;19.90;67.00;;;19.24;62.47;96675.06;4074929;34;19974;-85
2022/06/16 01:41:23;;;;;;;;;;;19.90;67.10;;;19.23;62.67;96674.25;4074732;34;19904;-87
2022/06/16 01:43:56;;;;;;;;;;;19.90;67.10;;;19.22;62.75;96674.56;4096858;34;19911;-86
2022/06/16 01:46:29;;;;;;;;;;;19.90;67.00;;;19.22;62.70;96678.16;4097394;34;20174;-87
2022/06/16 01:49:12;;;;;;;;;;;19.90;67.10;;;19.21;62.73;96681.25;4096874;34;19912;-86
2022/06/16 01:51:44;;;;;;;;;;;19.90;67.00;;;19.20;62.66;96680.41;4074746;34;19918;-85
2022/06/16 01:54:15;;;;;;;;;;;19.90;67.10;;;19.19;62.59;96687.09;4074908;34;20100;-86
2022/06/16 01:56:46;;;;;;;;;;;19.90;67.10;;;19.20;62.52;96680.41;4096609;34;20127;-87
2022/06/16 01:59:19;;;;;;;;;;;19.80;66.90;;;19.18;62.30;96691.00;4075028;34;20319;-86
2022/06/16 02:01:51;;;;;;;;;;;19.80;66.90;;;19.19;62.50;96684.31;4074412;34;20141;-86
2022/06/16 02:04:25;;;;;;;;;;;19.80;66.90;;;19.17;62.51;96684.66;4055250;34;19958;-86
2022/06/16 02:06:56;;;;;;;;;;;19.90;67.10;;;19.17;62.22;96681.88;4047700;34;20137;-86
2022/06/16 02:09:27;;;;;;;;;;;19.90;67.00;;;19.17;62.42;96679.09;4047768;34;20290;-85
2022/06/16 02:11:57;;;;;;;;;;;19.80;66.90;;;19.17;62.49;96681.03;4048097;34;19905;-86
2022/06/16 02:14:34;;;;;;;;;;;19.80;66.90;;;19.16;62.20;96679.44;4048935;34;20139;-86
2022/06/16 02:17:13;;;;;;;;;;;19.80;66.90;;;19.14;62.41;96688.06;4048384;34;19905;-86
2022/06/16 02:19:42;;;;;;;;;;;19.80;66.90;;;19.14;62.13;96682.50;4048699;34;20015;-86
2022/06/16 02:22:13;;;;;;;;;;;19.80;66.80;;;19.14;62.55;96679.72;4070481;34;20487;-86
2022/06/16 02:24:42;;;;;;;;;;;19.80;66.80;;;19.15;62.45;96683.34;4070361;34;19912;-86
2022/06/16 02:27:10;;;;;;;;;;;19.80;66.90;;;19.12;62.56;96684.75;4070133;34;20172;-85
2022/06/16 02:29:40;;;;;;;;;;;19.80;66.80;;;19.12;62.28;96683.97;4067218;34;20103;-85
2022/06/16 02:32:27;;;;;;;;;;;19.80;66.70;;;19.13;62.14;96680.06;4074836;34;20242;-85
2022/06/16 02:35:05;;;;;;;;;;;19.80;66.90;;;19.13;62.30;96680.06;4076186;34;20119;-86
2022/06/16 02:37:46;;;;;;;;;;;19.80;66.80;;;19.10;62.41;96686.22;4048590;34;19913;-86
2022/06/16 02:40:40;;;;;;;;;;;19.80;66.80;;;19.11;62.47;96680.34;4047478;34;19913;-86
2022/06/16 02:43:21;;;;;;;;;;;19.80;66.80;;;19.11;62.31;96687.88;4048635;34;19950;-85
2022/06/16 02:45:59;;;;;;;;;;;19.80;66.70;;;19.10;62.42;96689.00;4048241;34;20041;-85
2022/06/16 02:48:36;;;;;;;;;;;19.80;66.80;;;19.10;62.26;96680.66;4050434;34;19905;-85
2022/06/16 02:51:08;;;;;;;;;;;19.80;66.70;;;19.11;62.01;96687.88;4096332;34;20105;-86
2022/06/16 02:53:43;;;;;;;;;;;19.80;66.80;;;19.08;62.17;96688.50;4074756;34;20028;-85
2022/06/16 02:56:28;;;;;;;;;;;19.80;66.80;;;19.09;62.09;96687.34;4069804;34;19912;-85
2022/06/16 02:58:58;;;;;;;;;;;19.80;66.60;;;19.08;62.32;96685.72;4054567;34;19990;-85
2022/06/16 03:01:31;;;;;;;;;;;19.70;66.70;;;19.08;62.23;96688.50;4074269;34;20381;-85
2022/06/16 03:04:07;;;;;;;;;;;19.80;66.80;;;19.07;62.27;96689.63;4074255;34;20116;-85
2022/06/16 03:06:38;;;;;;;;;;;19.70;66.60;;;19.08;62.20;96694.03;4074517;34;20430;-85
2022/06/16 03:09:07;;;;;;;;;;;19.70;66.60;;;19.08;62.44;96688.50;4096094;34;19999;-85
2022/06/16 03:11:36;;;;;;;;;;;19.80;66.70;;;19.08;61.91;96688.50;4095854;34;19975;-86
2022/06/16 03:14:10;;;;;;;;;;;19.70;66.60;;;19.06;62.19;96691.59;4074108;34;20074;-85
2022/06/16 03:16:46;;;;;;;;;;;19.80;66.60;;;19.07;61.87;96687.69;4095963;34;19905;-84
2022/06/16 03:19:18;;;;;;;;;;;19.70;66.40;;;19.07;61.99;96684.91;4096071;34;19905;-85
2022/06/16 03:21:47;;;;;;;;;;;19.80;66.40;;;19.08;62.02;96685.72;4073387;34;20159;-85
2022/06/16 03:24:19;;;;;;;;;;;19.80;66.30;;;19.07;62.05;96681.28;4095797;34;20066;-86
2022/06/16 03:26:49;;;;;;;;;;;19.80;66.30;;;19.07;62.00;96681.28;4069366;34;20172;-85
2022/06/16 03:29:18;;;;;;;;;;;19.80;66.30;;;19.10;61.84;96681.50;4047613;35;20105;-86
2022/06/16 03:31:48;;;;;;;;;;;19.80;66.20;;;19.10;61.88;96677.91;4047080;35;19905;-86
2022/06/16 03:34:19;;;;;;;;;;;19.80;66.20;;;19.11;61.62;96683.13;4069450;35;19916;-85
2022/06/16 03:36:47;;;;;;;;;;;19.80;66.10;;;19.12;61.47;96679.22;4047918;35;20246;-85
2022/06/16 03:39:26;;;;;;;;;;;19.80;66.00;;;19.13;61.57;96674.50;4069222;35;19909;-86
2022/06/16 03:41:55;;;;;;;;;;;19.80;65.90;;;19.14;61.26;96676.16;4046922;35;20169;-84
2022/06/16 03:44:24;;;;;;;;;;;19.80;65.70;;;19.15;61.14;96675.00;4047658;35;19905;-86
2022/06/16 03:46:53;;;;;;;;;;;19.80;65.60;;;19.14;61.34;96670.59;4069180;35;19905;-85
2022/06/16 03:49:31;;;;;;;;;;;19.80;65.50;;;19.16;61.07;96671.09;4047514;35;20154;-86
2022/06/16 03:52:01;;;;;;;;;;;19.80;65.30;;;19.17;60.87;96678.25;4068517;35;19912;-86
2022/06/16 03:54:36;;;;;;;;;;;19.80;65.20;;;19.20;60.92;96680.41;4047416;35;20060;-86
2022/06/16 03:57:08;;;;;;;;;;;19.80;65.20;;;19.20;60.71;96679.63;4047449;35;19905;-85
2022/06/16 03:59:38;;;;;;;;;;;19.90;65.10;;;19.22;60.66;96686.47;4047345;35;19905;-86
2022/06/16 04:02:22;;;;;;;;;;;19.90;65.10;;;19.23;60.48;96679.78;4068987;35;20337;-85
2022/06/16 04:04:52;;;;;;;;;;;19.90;65.10;;;19.24;60.76;96675.88;4047384;35;19905;-85
2022/06/16 04:07:21;;;;;;;;;;;19.90;65.30;;;19.25;61.84;96680.31;4069046;35;20168;-85
2022/06/16 04:10:16;;;;;;;;;;;19.90;65.70;;;19.27;61.08;96680.81;4071637;34;19905;-86
2022/06/16 04:12:48;;;;;;;;;;;20.00;65.70;;;19.28;61.20;96676.91;4047568;35;19962;-85
2022/06/16 04:15:24;;;;;;;;;;;20.00;65.50;;;19.29;61.39;96678.53;4047369;35;19905;-85
2022/06/16 04:17:53;;;;;;;;;;;20.00;65.60;;;19.30;61.19;96685.72;4069027;35;19912;-86
2022/06/16 04:20:31;;;;;;;;;;;20.00;65.40;;;19.31;61.56;96676.25;4068821;35;19961;-85
2022/06/16 04:23:11;;;;;;;;;;;20.00;65.60;;;19.34;61.59;96673.97;4047282;35;19905;-85
2022/06/16 04:25:40;;;;;;;;;;;20.00;65.70;;;19.36;61.47;96680.03;4047195;35;20114;-86
2022/06/16 04:28:29;;;;;;;;;;;20.00;65.80;;;19.37;61.88;96678.91;4047087;35;19965;-86
2022/06/16 04:31:00;;;;;;;;;;;20.00;66.10;;;19.39;62.08;96679.41;4046928;35;20071;-86
2022/06/16 04:33:33;;;;;;;;;;;20.10;66.50;;;19.40;62.28;96679.09;4068806;35;20027;-86
2022/06/16 04:36:07;;;;;;;;;;;20.10;66.70;;;19.42;62.38;96684.34;4048617;34;19905;-86
2022/06/16 04:38:40;;;;;;;;;;;20.10;66.80;;;19.44;62.77;96685.66;4049288;34;20234;-85
2022/06/16 04:41:09;;;;;;;;;;;20.10;67.00;;;19.43;62.46;96681.25;4071639;34;19904;-87
2022/06/16 04:43:38;;;;;;;;;;;20.10;67.00;;;19.46;62.45;96677.00;4071075;34;19905;-86
2022/06/16 04:46:08;;;;;;;;;;;20.20;67.00;;;19.47;62.85;96682.25;4071102;34;19969;-86
2022/06/16 04:48:41;;;;;;;;;;;20.20;67.10;;;19.49;62.71;96681.94;4049125;34;20070;-85
2022/06/16 04:51:13;;;;;;;;;;;20.20;67.10;;;19.50;62.90;96680.78;4048983;34;20340;-86
2022/06/16 04:53:49;;;;;;;;;;;20.20;67.00;;;19.51;62.40;96678.81;4049275;34;20110;-85
2022/06/16 04:56:26;;;;;;;;;;;20.20;67.00;;;19.56;62.77;96692.59;4070901;34;19905;-85
2022/06/16 04:59:14;;;;;;;;;;;20.20;67.20;;;19.56;62.51;96693.41;4071842;34;19999;-85
2022/06/16 05:02:02;;;;;;;;;;;20.30;67.20;;;19.59;62.40;96687.22;4070275;34;20034;-87
2022/06/16 05:04:30;;;;;;;;;;;20.20;66.70;;;19.60;62.09;96677.75;4070900;34;19905;-86
2022/06/16 05:07:10;;;;;;;;;;;20.30;66.70;;;19.62;62.44;96678.25;4049028;34;20125;-86
2022/06/16 05:10:02;;;;;;;;;;;20.30;66.80;;;19.63;62.19;96688.22;4082041;34;20003;-86
2022/06/16 05:12:40;;;;;;;;;;;20.30;66.60;;;19.66;62.02;96674.84;4071714;34;20107;-86
2022/06/16 05:15:27;;;;;;;;;;;20.30;66.50;;;19.69;62.20;96675.03;4071509;34;19905;-86
2022/06/16 05:18:16;;;;;;;;;;;20.40;66.50;;;19.71;62.02;96674.69;4074638;34;19905;-85
2022/06/16 05:21:15;;;;;;;;;;;20.40;66.30;;;19.73;61.86;96676.03;4070804;34;20292;-87
2022/06/16 05:24:04;;;;;;;;;;;20.40;66.20;;;19.75;62.18;96673.75;4071394;34;19904;-86
2022/06/16 05:26:51;;;;;;;;;;;20.40;66.20;;;19.75;61.97;96668.19;4070571;34;20132;-85
2022/06/16 05:29:30;;;;;;;;;;;20.50;66.40;;;19.76;62.00;96672.59;4070532;34;20015;-86
2022/06/16 05:32:10;;;;;;;;;;;20.50;66.30;;;19.76;61.84;96680.13;4048329;34;19905;-86
2022/06/16 05:34:59;;;;;;;;;;;20.50;66.30;;;19.76;61.89;96677.34;4070335;34;19946;-86
2022/06/16 05:37:54;;;;;;;;;;;20.40;66.10;;;19.76;61.81;96674.56;4102031;34;20140;-86
2022/06/16 05:40:58;;;;;;;;;;;20.40;66.10;;;19.76;61.90;96680.94;4068637;34;19914;-86
2022/06/16 05:43:47;;;;;;;;;;;20.40;66.10;;;19.76;61.83;96680.94;4096603;34;19947;-86
2022/06/16 05:46:30;;;;;;;;;;;20.40;66.20;;;19.76;61.78;96678.16;4093957;34;20111;-85
2022/06/16 05:49:02;;;;;;;;;;;20.50;66.20;;;19.78;61.71;96677.84;4048650;34;19932;-86
2022/06/16 05:51:31;;;;;;;;;;;20.50;66.30;;;19.78;62.11;96675.88;4048097;34;19927;-87
2022/06/16 05:54:07;;;;;;;;;;;20.50;66.50;;;19.81;62.09;96681.94;4070320;34;19905;-86
2022/06/16 05:56:39;;;;;;;;;;;20.50;66.50;;;19.83;62.01;96688.81;4048570;34;20363;-86
2022/06/16 05:59:08;;;;;;;;;;;20.50;66.40;;;19.84;61.73;96687.69;4048404;34;19905;-85
2022/06/16 06:01:38;;;;;;;;;;;20.50;66.20;;;19.86;61.89;96684.59;4049596;34;20127;-86
2022/06/16 06:04:10;;;;;;;;;;;20.50;66.30;;;19.87;61.95;96686.28;4074797;34;19904;-86
2022/06/16 06:06:40;;;;;;;;;;;20.60;66.30;;;19.89;61.72;96684.81;4096554;34;20403;-85
2022/06/16 06:17:46;;;;;;;;;;;20.60;66.10;;;19.97;61.87;96691.53;4066241;34;20179;-86
2022/06/16 06:20:15;;;;;;;;;;;20.60;66.20;;;19.99;61.74;96694.00;4073881;34;19919;-86
2022/06/16 06:22:49;;;;;;;;;;;20.60;66.10;;;20.00;61.83;96692.84;4096369;34;20257;-86
2022/06/16 06:25:19;;;;;;;;;;;20.70;66.30;;;20.01;62.06;96697.28;4096470;34;19904;-86
2022/06/16 06:28:00;;;;;;;;;;;20.70;66.20;;;20.00;62.01;96696.47;4086678;34;20064;-86
2022/06/16 06:30:30;;;;;;;;;;;20.70;66.30;;;20.01;62.52;96702.84;4048043;34;20181;-85
2022/06/16 06:33:04;;;;;;;;;;;20.70;66.50;;;20.02;62.12;96696.94;4069921;34;19905;-85
2022/06/16 06:35:33;;;;;;;;;;;20.70;66.50;;;20.01;62.55;96694.50;4048113;34;19905;-86
2022/06/16 06:38:14;;;;;;;;;;;20.70;66.70;;;20.03;62.19;96695.00;4091788;34;20244;-87
2022/06/16 06:40:51;;;;;;;;;;;20.70;66.60;;;20.03;62.19;96686.66;4094271;34;19912;-86
2022/06/16 06:43:21;;;;;;;;;;;20.80;66.60;;;20.06;62.29;96691.59;4092195;34;20060;-86
2022/06/16 06:45:50;;;;;;;;;;;20.80;66.60;;;20.06;62.01;96694.38;4091673;34;20169;-86
2022/06/16 06:48:18;;;;;;;;;;;20.80;66.50;;;20.11;62.06;96696.19;4048065;34;19912;-86
2022/06/16 06:50:47;;;;;;;;;;;20.80;66.40;;;20.13;62.05;96694.72;4047669;34;20243;-87
2022/06/16 06:53:16;;;;;;;;;;;20.80;66.20;;;20.14;61.99;96682.47;4063439;34;20006;-87
2022/06/16 06:55:48;;;;;;;;;;;20.80;66.20;;;20.17;62.09;96690.16;4118317;34;20127;-87
2022/06/16 06:58:22;;;;;;;;;;;20.80;66.30;;;20.19;61.80;96695.38;4086201;34;19905;-86
2022/06/16 07:01:00;;;;;;;;;;;20.90;66.30;;;20.20;61.84;96688.69;4048969;34;20024;-87
2022/06/16 07:03:29;;;;;;;;;;;20.90;66.30;;;20.22;61.92;96697.53;4091574;34;19912;-87
2022/06/16 07:05:59;;;;;;;;;;;20.90;66.20;;;20.23;61.75;96688.84;4069644;34;19912;-87
2022/06/16 07:08:31;;;;;;;;;;;20.90;66.20;;;20.25;61.76;96691.34;4069554;34;20147;-86
2022/06/16 07:11:25;;;;;;;;;;;20.90;66.10;;;20.30;61.58;96687.59;4069341;34;19979;-87
2022/06/16 07:13:56;;;;;;;;;;;20.90;66.00;;;20.29;61.30;96692.31;4048295;34;20023;-86
2022/06/16 07:16:25;;;;;;;;;;;21.00;65.90;;;20.31;61.39;96684.47;4091857;34;20109;-86
2022/06/16 07:18:59;;;;;;;;;;;21.00;65.80;;;20.32;61.36;96693.66;4091441;34;19953;-86
2022/06/16 07:21:56;;;;;;;;;;;21.00;66.30;;;20.31;61.12;96686.44;4090999;34;20234;-86
2022/06/16 07:24:25;;;;;;;;;;;21.00;65.50;;;20.33;61.45;96681.38;4069702;34;19905;-85
2022/06/16 07:27:18;;;;;;;;;;;21.00;65.60;;;20.34;61.31;96677.44;4048126;34;20128;-86
2022/06/16 07:30:20;;;;;;;;;;;21.00;65.60;;;20.34;61.39;96663.53;4047913;35;20152;-86
2022/06/16 07:37:27;;;;;;;;;;;21.10;65.60;;;20.39;61.32;96680.09;4034184;35;20091;-86
2022/06/16 07:39:55;;;;;;;;;;;21.00;65.50;;;20.40;61.13;96678.94;4075140;34;19904;-86
2022/06/16 07:42:24;;;;;;;;;;;21.10;65.60;;;20.40;60.95;96673.38;4118216;34;19942;-87
2022/06/16 07:44:54;;;;;;;;;;;21.10;65.40;;;20.41;61.08;96677.81;4095808;34;19905;-87
2022/06/16 07:47:23;;;;;;;;;;;21.10;65.30;;;20.42;61.06;96681.38;4095727;34;19971;-88
2022/06/16 07:49:55;;;;;;;;;;;21.10;65.40;;;20.42;61.18;96685.00;4117680;34;20125;-87
2022/06/16 07:52:24;;;;;;;;;;;21.10;65.40;;;20.43;61.11;96683.88;4073591;34;20224;-87
2022/06/16 07:54:52;;;;;;;;;;;21.10;65.30;;;20.43;61.01;96678.31;4095625;34;20342;-87
2022/06/16 07:57:22;;;;;;;;;;;21.10;65.30;;;20.45;61.06;96681.59;4073722;34;19988;-87
2022/06/16 07:59:52;;;;;;;;;;;21.10;65.20;;;20.45;60.89;96681.59;4095320;34;20214;-87
2022/06/16 08:02:22;;;;;;;;;;;21.10;65.20;;;20.45;61.05;96684.38;4073802;34;20237;-87
2022/06/16 08:04:50;;;;;;;;;;;21.10;65.40;;;20.43;61.05;96669.97;4117664;34;19905;-87
2022/06/16 08:07:19;;;;;;;;;;;21.10;65.40;;;20.45;61.27;96673.25;4095630;34;20246;-88
2022/06/16 08:09:51;;;;;;;;;;;21.10;65.40;;;20.46;61.05;96680.41;4095669;34;19912;-87
2022/06/16 08:12:20;;;;;;;;;;;21.10;65.40;;;20.46;60.98;96687.94;4098884;34;20398;-88
2022/06/16 08:14:49;;;;;;;;;;;21.10;65.40;;;20.44;61.27;96671.59;4075932;34;20112;-88
2022/06/16 08:17:21;;;;;;;;;;;21.10;65.40;;;20.42;61.20;96662.75;4097945;34;19993;-87
2022/06/16 08:19:50;;;;;;;;;;;21.10;65.50;;;20.43;61.08;96680.25;4075306;34;20130;-88
2022/06/16 08:22:37;;;;;;;;;;;21.10;65.40;;;20.39;61.21;96671.75;4098596;34;20440;-87
2022/06/16 08:25:37;;;;;;;;;;;21.10;65.40;;;20.41;60.84;96672.25;4119525;34;19905;-87
2022/06/16 08:28:06;;;;;;;;;;;21.10;65.50;;;20.37;61.24;96672.06;4094170;34;20216;-87
2022/06/16 08:30:34;;;;;;;;;;;21.10;65.50;;;20.39;61.39;96674.53;4097091;34;20096;-86
2022/06/16 08:33:05;;;;;;;;;;;21.10;65.50;;;20.37;61.35;96671.25;4097599;34;20013;-86
2022/06/16 08:35:34;;;;;;;;;;;21.10;65.40;;;20.36;60.99;96675.16;4080880;34;19912;-86
2022/06/16 08:38:02;;;;;;;;;;;21.00;65.40;;;20.33;61.19;96670.25;4049297;34;19905;-87
2022/06/16 08:40:32;;;;;;;;;;;21.10;65.50;;;20.33;61.56;96670.25;4049104;34;19980;-87
2022/06/16 08:43:02;;;;;;;;;;;21.00;65.60;;;20.32;61.49;96668.63;4071341;34;20288;-87
2022/06/16 08:45:33;;;;;;;;;;;21.00;65.60;;;20.31;61.44;96673.34;4071025;34;20174;-86
2022/06/16 08:48:17;;;;;;;;;;;21.00;65.70;;;20.31;61.57;96672.53;4070939;34;20166;-86
2022/06/16 08:50:50;;;;;;;;;;;21.00;65.70;;;20.31;61.35;96678.09;4086528;34;20246;-87
2022/06/16 08:53:31;;;;;;;;;;;21.00;65.80;;;20.30;61.43;96660.59;4119452;34;20294;-87
2022/06/16 08:56:03;;;;;;;;;;;21.00;65.60;;;20.29;61.46;96670.06;4079200;34;19905;-86
2022/06/16 08:58:38;;;;;;;;;;;21.00;65.70;;;20.28;61.52;96657.31;4070568;34;20127;-87
2022/06/16 09:01:11;;;;;;;;;;;21.00;65.80;;;20.29;61.51;96661.72;4084154;34;20130;-87
2022/06/16 09:03:46;;;;;;;;;;;21.00;65.80;;;20.29;61.67;96660.91;4070831;34;20008;-87
2022/06/16 09:06:25;;;;;;;;;;;21.00;65.80;;;20.29;61.63;96663.69;4070766;34;20107;-87
2022/06/16 09:08:59;;;;;;;;;;;21.00;65.90;;;20.29;61.69;96663.69;4049078;34;20060;-87
2022/06/16 09:11:34;;;;;;;;;;;21.00;65.80;;;20.28;61.54;96662.06;4102016;34;20266;-87
2022/06/16 09:15:10;;;;;;;;;;;21.00;65.70;;;20.29;61.63;96658.13;4049078;34;19912;-87
2022/06/16 09:17:19;;;;;;;;;;;21.00;65.90;;;20.28;61.64;96651.75;4048736;34;20247;-86
2022/06/16 09:19:59;;;;;;;;;;;21.00;65.80;;;20.27;61.69;96655.66;4048955;34;19905;-86
2022/06/16 09:22:41;;;;;;;;;;;21.00;65.90;;;20.27;61.70;96649.31;4070864;34;19998;-87
2022/06/16 09:25:33;;;;;;;;;;;21.00;65.90;;;20.26;61.58;96639.31;4070609;34;20020;-86
2022/06/16 09:28:32;;;;;;;;;;;21.00;65.90;;;20.26;61.65;96647.66;4048585;34;19905;-86
2022/06/16 09:31:02;;;;;;;;;;;20.90;65.90;;;20.24;62.21;96651.56;4038379;35;20270;-87
2022/06/16 09:33:35;;;;;;;;;;;20.90;65.80;;;20.24;61.33;96640.47;4019658;35;20103;-87
2022/06/16 09:36:07;;;;;;;;;;;20.90;65.90;;;20.24;61.88;96646.00;4018651;35;20132;-87
2022/06/16 09:38:43;;;;;;;;;;;20.90;66.00;;;20.23;61.69;96632.44;4018528;35;19906;-86
2022/06/16 09:43:56;;;;;;;;;;;20.90;66.00;;;20.22;61.95;96631.63;4019364;35;19910;-86
2022/06/16 09:46:32;;;;;;;;;;;20.90;66.20;;;20.23;61.91;96633.25;4035619;35;20129;-87
2022/06/16 09:49:06;;;;;;;;;;;20.90;66.10;;;20.21;61.60;96627.19;3993212;35;20157;-88
2022/06/16 09:51:40;;;;;;;;;;;20.90;66.00;;;20.22;61.51;96637.19;4027265;35;20180;-88
2022/06/16 09:54:12;;;;;;;;;;;20.90;66.00;;;20.21;61.65;96624.41;4019471;35;20448;-87
2022/06/16 09:56:44;;;;;;;;;;;20.90;66.10;;;20.23;61.76;96635.22;3997230;35;20148;-87
2022/06/16 09:59:15;;;;;;;;;;;20.90;66.00;;;20.21;61.50;96629.97;4018436;35;19940;-85
2022/06/16 10:01:50;;;;;;;;;;;20.90;66.00;;;20.21;61.74;96629.16;4025951;35;19906;-86
2022/06/16 10:04:18;;;;;;;;;;;20.90;66.00;;;20.21;61.80;96623.63;3972302;35;19980;-87
2022/06/16 10:07:02;;;;;;;;;;;20.90;66.00;;;20.18;61.88;96616.75;3992877;35;20136;-87
2022/06/16 10:09:44;;;;;;;;;;;20.90;66.00;;;20.19;61.73;96629.50;4013923;35;20046;-87
2022/06/16 10:12:20;;;;;;;;;;;20.90;66.10;;;20.18;61.78;96625.09;4030358;35;20154;-86
2022/06/16 10:15:00;;;;;;;;;;;20.90;66.10;;;20.18;61.67;96627.88;4039877;35;20125;-87
2022/06/16 10:17:29;;;;;;;;;;;20.90;66.10;;;20.19;61.86;96631.44;4018369;35;20502;-87
2022/06/16 10:19:58;;;;;;;;;;;20.90;66.10;;;20.18;62.00;96625.09;4017734;35;20132;-86
2022/06/16 10:22:30;;;;;;;;;;;20.90;66.10;;;20.17;62.02;96623.44;4018136;35;20018;-87
2022/06/16 10:25:10;;;;;;;;;;;20.80;66.00;;;20.17;61.80;96619.84;4018332;35;19906;-86
2022/06/16 10:27:44;;;;;;;;;;;20.80;66.00;;;20.16;61.74;96620.97;4018224;35;20151;-87
2022/06/16 10:30:26;;;;;;;;;;;20.90;66.20;;;20.16;61.68;96621.81;4017684;35;20147;-86
2022/06/16 10:33:11;;;;;;;;;;;20.80;66.00;;;20.16;61.89;96620.97;3997140;35;20424;-88
2022/06/16 10:35:40;;;;;;;;;;;20.80;66.10;;;20.15;62.03;96616.56;4013995;35;20127;-87
2022/06/16 10:38:23;;;;;;;;;;;20.80;66.10;;;20.15;61.81;96616.56;3992421;35;20110;-86
2022/06/16 10:41:08;;;;;;;;;;;20.80;66.10;;;20.14;62.00;96612.97;3971707;35;20187;-87
2022/06/16 10:43:53;;;;;;;;;;;20.80;66.10;;;20.14;62.03;96610.19;3971859;35;19906;-87
2022/06/16 10:46:23;;;;;;;;;;;20.80;66.20;;;20.14;61.82;96612.97;3992469;35;20419;-86
2022/06/16 10:48:54;;;;;;;;;;;20.80;66.10;;;20.14;61.69;96607.41;3993763;35;19922;-87
2022/06/16 10:51:25;;;;;;;;;;;20.80;66.20;;;20.12;61.74;96601.34;3992122;35;19906;-88
2022/06/16 10:54:13;;;;;;;;;;;20.80;66.20;;;20.13;61.85;96602.19;4013662;35;19910;-86
2022/06/16 10:56:42;;;;;;;;;;;20.80;66.20;;;20.13;61.88;96599.41;4013642;35;20245;-87
2022/06/16 10:59:19;;;;;;;;;;;20.80;66.20;;;20.13;61.69;96599.41;3992891;35;20137;-87
2022/06/16 11:01:55;;;;;;;;;;;20.80;66.20;;;20.12;61.74;96593.00;4007587;35;19906;-87
2022/06/16 11:04:36;;;;;;;;;;;20.80;66.20;;;20.12;62.00;96600.53;4018053;35;19921;-86
2022/06/16 11:07:05;;;;;;;;;;;20.80;66.30;;;20.12;61.83;96593.00;4039285;35;20240;-87
2022/06/16 11:09:35;;;;;;;;;;;20.80;66.30;;;20.13;62.01;96599.41;4017823;35;19963;-87
2022/06/16 11:12:06;;;;;;;;;;;20.80;66.30;;;20.13;62.20;96596.63;3996063;35;19910;-87
2022/06/16 11:14:41;;;;;;;;;;;20.80;66.40;;;20.13;62.15;96597.44;4039197;35;19906;-87
2022/06/16 11:17:18;;;;;;;;;;;20.80;66.40;;;20.12;62.01;96593.00;4039176;35;19906;-86
2022/06/16 11:19:48;;;;;;;;;;;20.80;66.30;;;20.12;62.11;96590.22;4017606;35;20244;-87
2022/06/16 11:22:19;;;;;;;;;;;20.80;66.40;;;20.12;62.03;96593.00;4017451;35;19912;-88
2022/06/16 11:24:56;;;;;;;;;;;20.80;67.30;;;20.13;61.99;96591.06;4018761;35;20106;-87
2022/06/16 11:27:25;;;;;;;;;;;20.80;66.40;;;20.13;61.97;96588.28;4018528;35;19906;-86
2022/06/16 11:29:53;;;;;;;;;;;20.80;66.40;;;20.12;61.84;96586.66;4038558;35;20043;-87
2022/06/16 11:32:24;;;;;;;;;;;20.80;66.40;;;20.11;61.92;96580.25;4034473;35;19915;-87
2022/06/16 11:34:53;;;;;;;;;;;20.80;66.40;;;20.11;62.06;96588.59;3992388;35;19907;-88
2022/06/16 11:37:49;;;;;;;;;;;20.80;66.40;;;20.12;62.08;96587.44;3995148;35;20117;-86
2022/06/16 11:40:33;;;;;;;;;;;20.80;66.30;;;20.13;62.09;96589.09;4017185;35;19913;-88
2022/06/16 11:44:00;;;;;;;;;;;20.80;66.40;;;20.13;62.08;96589.09;4008936;35;20222;-87
2022/06/16 11:46:46;;;;;;;;;;;20.80;66.40;;;20.13;62.07;96580.75;4006276;35;19913;-86
2022/06/16 11:49:35;;;;;;;;;;;20.80;66.40;;;20.12;62.02;96579.13;4015648;35;20133;-87
2022/06/16 11:52:13;;;;;;;;;;;20.80;66.20;;;20.12;61.96;96578.31;4019168;35;19906;-86
2022/06/16 11:54:55;;;;;;;;;;;20.80;66.20;;;20.13;61.91;96577.97;4041412;35;20129;-85
2022/06/16 11:57:42;;;;;;;;;;;20.80;66.20;;;20.11;62.00;96574.69;4019685;35;19913;-87
2022/06/16 12:00:21;;;;;;;;;;;20.80;66.30;;;20.14;62.00;96574.06;4019266;35;20178;-87
2022/06/16 12:06:59;;;;;;;;;;;20.80;66.20;;;20.14;62.08;96571.28;3994245;35;20388;-87
2022/06/16 12:09:35;;;;;;;;;;;20.80;66.00;;;20.14;61.92;96568.50;4031109;35;20061;-86
2022/06/16 12:12:07;;;;;;;;;;;20.80;66.20;;;20.14;61.95;96567.69;3993490;35;19910;-87
2022/06/16 12:14:47;;;;;;;;;;;20.80;66.20;;;20.14;61.78;96557.38;3994149;35;20441;-87
2022/06/16 12:17:20;;;;;;;;;;;20.80;66.20;;;20.14;61.97;96562.94;3973221;35;20157;-88
2022/06/16 12:19:53;;;;;;;;;;;20.80;66.20;;;20.12;62.05;96548.53;3993725;35;19913;-87